createdAt,value
2018-07-29T00:00:37.279Z,26.20
2018-07-29T00:03:05.054Z,26.30
2018-07-29T00:05:32.523Z,26.20
2018-07-29T00:08:00.004Z,26.20
2018-07-29T00:12:54.894Z,26.20
2018-07-29T00:15:22.384Z,26.20
2018-07-29T00:17:49.813Z,26.20
2018-07-29T00:20:17.241Z,26.20
2018-07-29T00:22:44.670Z,26.20
2018-07-29T00:25:12.139Z,26.10
2018-07-29T00:27:39.578Z,26.10
2018-07-29T00:30:07.094Z,26.10
2018-07-29T00:32:34.542Z,26.10
2018-07-29T00:35:02.412Z,26.10
2018-07-29T00:37:29.946Z,26.00
2018-07-29T00:39:57.378Z,26.10
2018-07-29T00:42:24.841Z,26.00
2018-07-29T00:44:52.547Z,26.00
2018-07-29T00:47:20.012Z,26.00
2018-07-29T00:49:47.505Z,26.00
2018-07-29T00:52:14.950Z,25.90
2018-07-29T00:54:42.564Z,25.90
2018-07-29T00:57:10.029Z,25.90
2018-07-29T00:59:37.701Z,25.80
2018-07-29T01:02:05.258Z,25.90
2018-07-29T01:07:00.754Z,25.80
2018-07-29T01:09:28.247Z,25.80
2018-07-29T01:11:55.720Z,25.70
2018-07-29T01:14:23.129Z,25.70
2018-07-29T01:19:17.998Z,25.70
2018-07-29T01:21:45.455Z,25.70
2018-07-29T01:24:12.889Z,25.60
2018-07-29T01:29:07.769Z,25.60
2018-07-29T01:31:35.395Z,25.60
2018-07-29T01:34:02.983Z,25.60
2018-07-29T01:36:30.824Z,25.60
2018-07-29T01:38:58.452Z,25.60
2018-07-29T01:41:25.919Z,25.60
2018-07-29T01:43:53.354Z,25.50
2018-07-29T01:46:20.927Z,25.50
2018-07-29T01:48:48.396Z,25.50
2018-07-29T01:51:15.902Z,25.50
2018-07-29T01:53:43.314Z,25.40
2018-07-29T01:56:10.842Z,25.50
2018-07-29T01:58:38.246Z,25.50
2018-07-29T02:01:06.169Z,25.40
2018-07-29T02:03:33.608Z,25.40
2018-07-29T02:06:01.014Z,25.40
2018-07-29T02:08:28.616Z,25.40
2018-07-29T02:10:56.051Z,25.40
2018-07-29T02:13:23.498Z,25.40
2018-07-29T02:15:50.964Z,25.40
2018-07-29T02:18:18.459Z,25.40
2018-07-29T02:20:45.862Z,25.40
2018-07-29T02:23:13.332Z,25.40
2018-07-29T02:25:40.778Z,25.40
2018-07-29T02:28:08.360Z,25.40
2018-07-29T02:30:35.862Z,25.40
2018-07-29T02:33:03.389Z,25.30
2018-07-29T02:35:30.826Z,25.30
2018-07-29T02:37:58.227Z,25.40
2018-07-29T02:40:26.085Z,25.30
2018-07-29T02:42:53.533Z,25.30
2018-07-29T02:45:21.098Z,25.30
2018-07-29T02:47:48.566Z,25.30
2018-07-29T02:50:16.006Z,25.30
2018-07-29T02:52:43.476Z,25.30
2018-07-29T02:55:10.978Z,25.30
2018-07-29T02:57:38.419Z,25.30
2018-07-29T03:00:06.065Z,25.30
2018-07-29T03:02:33.549Z,25.30
2018-07-29T03:05:01.864Z,25.30
2018-07-29T03:07:29.385Z,25.30
2018-07-29T03:09:56.859Z,25.30
2018-07-29T03:12:24.790Z,25.20
2018-07-29T03:14:52.320Z,25.20
2018-07-29T03:17:19.680Z,25.20
2018-07-29T03:19:47.181Z,25.20
2018-07-29T03:22:14.638Z,25.20
2018-07-29T03:24:42.015Z,25.20
2018-07-29T03:27:09.421Z,25.10
2018-07-29T03:29:36.990Z,25.10
2018-07-29T03:32:04.478Z,25.10
2018-07-29T03:34:32.152Z,25.10
2018-07-29T03:36:59.645Z,25.10
2018-07-29T03:39:27.110Z,25.10
2018-07-29T03:41:54.854Z,25.10
2018-07-29T03:44:22.296Z,25.10
2018-07-29T03:46:49.853Z,25.10
2018-07-29T03:49:17.254Z,25.10
2018-07-29T03:51:44.667Z,25.10
2018-07-29T03:54:12.089Z,25.10
2018-07-29T03:56:39.635Z,25.10
2018-07-29T03:59:07.415Z,25.00
2018-07-29T04:01:34.858Z,25.00
2018-07-29T04:04:02.289Z,25.10
2018-07-29T04:06:29.739Z,25.00
2018-07-29T04:08:57.161Z,25.00
2018-07-29T04:11:24.644Z,25.00
2018-07-29T04:13:52.144Z,25.00
2018-07-29T04:18:51.737Z,25.00
2018-07-29T04:21:19.180Z,25.00
2018-07-29T04:23:46.589Z,25.10
2018-07-29T04:26:13.983Z,25.10
2018-07-29T04:28:41.378Z,25.10
2018-07-29T04:31:08.962Z,25.00
2018-07-29T04:33:36.422Z,25.00
2018-07-29T04:36:04.051Z,25.00
2018-07-29T04:38:32.060Z,25.00
2018-07-29T04:40:59.484Z,25.10
2018-07-29T04:43:26.918Z,25.10
2018-07-29T04:45:54.423Z,25.10
2018-07-29T04:48:21.979Z,25.00
2018-07-29T04:50:49.379Z,25.10
2018-07-29T04:53:16.918Z,25.00
2018-07-29T04:58:11.922Z,25.10
2018-07-29T05:00:39.490Z,25.10
2018-07-29T05:03:07.044Z,25.20
2018-07-29T05:05:34.581Z,25.20
2018-07-29T05:08:02.043Z,25.30
2018-07-29T05:10:29.525Z,25.30
2018-07-29T05:12:57.017Z,25.30
2018-07-29T05:15:24.467Z,25.30
2018-07-29T05:17:52.011Z,25.30
2018-07-29T05:20:19.569Z,25.30
2018-07-29T05:22:47.284Z,25.40
2018-07-29T05:25:14.800Z,25.40
2018-07-29T05:27:43.334Z,25.40
2018-07-29T05:30:10.937Z,25.40
2018-07-29T05:32:38.486Z,25.40
2018-07-29T05:35:06.332Z,25.50
2018-07-29T05:37:33.793Z,25.40
2018-07-29T05:40:01.218Z,25.50
2018-07-29T05:42:28.725Z,25.50
2018-07-29T05:47:23.533Z,25.50
2018-07-29T05:49:51.065Z,25.50
2018-07-29T05:52:18.503Z,25.50
2018-07-29T05:54:45.963Z,25.50
2018-07-29T05:57:13.515Z,25.50
2018-07-29T05:59:40.909Z,25.50
2018-07-29T06:02:08.359Z,25.60
2018-07-29T06:04:35.813Z,25.60
2018-07-29T06:07:03.416Z,25.60
2018-07-29T06:09:30.845Z,25.60
2018-07-29T06:11:58.421Z,25.50
2018-07-29T06:14:25.891Z,25.50
2018-07-29T06:16:53.261Z,25.50
2018-07-29T06:21:48.251Z,25.60
2018-07-29T06:24:15.757Z,25.50
2018-07-29T06:26:43.152Z,25.60
2018-07-29T06:29:10.547Z,25.60
2018-07-29T06:31:38.107Z,25.60
2018-07-29T06:34:05.639Z,25.60
2018-07-29T06:36:33.198Z,25.60
2018-07-29T06:39:00.679Z,25.60
2018-07-29T06:41:28.329Z,25.60
2018-07-29T06:43:55.862Z,25.60
2018-07-29T06:46:23.362Z,25.60
2018-07-29T06:48:50.788Z,25.60
2018-07-29T06:51:18.232Z,25.70
2018-07-29T06:53:45.673Z,25.60
2018-07-29T06:56:13.230Z,25.60
2018-07-29T06:58:40.759Z,25.70
2018-07-29T07:01:08.308Z,25.70
2018-07-29T07:03:35.774Z,25.70
2018-07-29T07:06:03.369Z,25.70
2018-07-29T07:08:31.025Z,25.70
2018-07-29T07:13:26.044Z,25.70
2018-07-29T07:15:53.537Z,25.70
2018-07-29T07:18:21.014Z,25.70
2018-07-29T07:20:48.502Z,25.70
2018-07-29T07:23:15.937Z,25.80
2018-07-29T07:25:43.490Z,25.80
2018-07-29T07:28:10.929Z,25.80
2018-07-29T07:30:38.366Z,25.80
2018-07-29T07:33:06.030Z,25.80
2018-07-29T07:35:33.599Z,25.80
2018-07-29T07:38:01.206Z,25.80
2018-07-29T07:40:28.717Z,25.80
2018-07-29T07:42:56.241Z,25.80
2018-07-29T07:45:23.713Z,25.80
2018-07-29T07:47:51.222Z,25.80
2018-07-29T07:50:18.667Z,25.90
2018-07-29T07:52:46.282Z,25.90
2018-07-29T07:55:13.767Z,25.90
2018-07-29T07:57:41.259Z,25.90
2018-07-29T08:02:36.293Z,25.90
2018-07-29T08:05:04.503Z,25.90
2018-07-29T08:07:32.034Z,25.90
2018-07-29T08:09:59.505Z,25.90
2018-07-29T08:12:26.922Z,25.90
2018-07-29T08:14:54.386Z,25.90
2018-07-29T08:17:21.867Z,25.90
2018-07-29T08:19:49.313Z,25.90
2018-07-29T08:22:16.766Z,25.90
2018-07-29T08:24:44.403Z,25.80
2018-07-29T08:27:11.864Z,26.00
2018-07-29T08:29:39.314Z,26.00
2018-07-29T08:32:06.794Z,26.10
2018-07-29T08:34:34.252Z,26.10
2018-07-29T08:37:01.694Z,26.10
2018-07-29T08:39:29.242Z,26.20
2018-07-29T08:41:56.799Z,26.20
2018-07-29T08:44:24.346Z,26.20
2018-07-29T08:46:51.795Z,26.20
2018-07-29T08:49:19.265Z,26.20
2018-07-29T08:51:46.770Z,26.30
2018-07-29T08:54:14.324Z,26.30
2018-07-29T08:56:41.917Z,26.30
2018-07-29T08:59:09.490Z,26.30
2018-07-29T09:01:37.015Z,26.30
2018-07-29T09:04:04.879Z,26.30
2018-07-29T09:08:59.750Z,26.40
2018-07-29T09:11:27.280Z,26.40
2018-07-29T09:13:54.770Z,26.40
2018-07-29T09:16:22.229Z,26.40
2018-07-29T09:18:49.702Z,26.50
2018-07-29T09:21:17.118Z,26.50
2018-07-29T09:23:44.579Z,26.50
2018-07-29T09:26:12.557Z,26.50
2018-07-29T09:28:40.005Z,26.60
2018-07-29T09:31:07.743Z,26.60
2018-07-29T09:33:35.173Z,26.70
2018-07-29T09:36:02.712Z,26.70
2018-07-29T09:40:57.670Z,26.70
2018-07-29T09:43:25.094Z,26.80
2018-07-29T09:45:52.530Z,26.80
2018-07-29T09:48:20.085Z,26.80
2018-07-29T09:50:47.571Z,26.80
2018-07-29T09:53:15.049Z,26.90
2018-07-29T09:55:42.610Z,26.90
2018-07-29T09:58:10.058Z,26.80
2018-07-29T10:00:42.369Z,26.90
2018-07-29T10:03:09.955Z,26.90
2018-07-29T10:05:37.445Z,26.90
2018-07-29T10:08:05.221Z,26.90
2018-07-29T10:10:32.889Z,26.90
2018-07-29T10:13:00.410Z,26.90
2018-07-29T10:15:27.904Z,27.00
2018-07-29T10:17:55.347Z,26.90
2018-07-29T10:20:22.837Z,27.00
2018-07-29T10:22:50.762Z,27.00
2018-07-29T10:25:18.321Z,27.00
2018-07-29T10:27:45.754Z,27.00
2018-07-29T10:32:40.675Z,27.10
2018-07-29T10:35:08.102Z,27.00
2018-07-29T10:37:35.731Z,27.10
2018-07-29T10:40:03.520Z,27.10
2018-07-29T10:42:31.001Z,27.10
2018-07-29T10:44:58.527Z,27.10
2018-07-29T10:47:26.525Z,27.10
2018-07-29T10:49:53.906Z,27.10
2018-07-29T10:52:21.414Z,27.20
2018-07-29T10:54:48.922Z,27.20
2018-07-29T10:57:16.475Z,27.20
2018-07-29T10:59:43.991Z,27.30
2018-07-29T11:02:11.777Z,27.30
2018-07-29T11:04:39.226Z,27.30
2018-07-29T11:07:06.763Z,27.30
2018-07-29T11:09:34.459Z,27.20
2018-07-29T11:12:02.234Z,27.40
2018-07-29T11:14:29.942Z,27.40
2018-07-29T11:16:57.401Z,27.40
2018-07-29T11:19:24.809Z,27.40
2018-07-29T11:21:52.349Z,27.50
2018-07-29T11:24:19.818Z,27.50
2018-07-29T11:26:47.366Z,27.50
2018-07-29T11:29:15.034Z,27.50
2018-07-29T11:31:42.675Z,27.60
2018-07-29T11:34:10.275Z,27.60
2018-07-29T11:36:38.037Z,27.60
2018-07-29T11:39:07.852Z,27.60
2018-07-29T11:41:35.371Z,27.60
2018-07-29T11:44:03.242Z,27.70
2018-07-29T11:46:30.863Z,27.70
2018-07-29T11:48:58.502Z,27.70
2018-07-29T11:53:53.570Z,27.70
2018-07-29T11:56:21.167Z,27.70
2018-07-29T11:58:48.609Z,27.70
2018-07-29T12:01:16.327Z,27.70
2018-07-29T12:03:43.777Z,27.70
2018-07-29T12:08:38.930Z,27.70
2018-07-29T12:11:06.340Z,27.70
2018-07-29T12:13:34.042Z,27.70
2018-07-29T12:16:01.585Z,27.70
2018-07-29T12:18:29.306Z,27.70
2018-07-29T12:20:56.938Z,27.80
2018-07-29T12:23:24.492Z,27.80
2018-07-29T12:25:51.886Z,27.80
2018-07-29T12:28:19.334Z,27.80
2018-07-29T12:30:46.791Z,27.80
2018-07-29T12:33:14.233Z,27.80
2018-07-29T12:35:41.846Z,27.80
2018-07-29T12:38:09.349Z,27.90
2018-07-29T12:40:37.148Z,27.90
2018-07-29T12:43:04.840Z,27.90
2018-07-29T12:45:32.411Z,27.90
2018-07-29T12:48:00.026Z,27.90
2018-07-29T12:50:27.592Z,28.00
2018-07-29T12:52:55.015Z,28.00
2018-07-29T12:55:22.407Z,28.00
2018-07-29T12:57:50.183Z,28.10
2018-07-29T13:00:17.865Z,28.10
2018-07-29T13:02:45.279Z,28.20
2018-07-29T13:05:13.043Z,28.20
2018-07-29T13:07:40.843Z,28.30
2018-07-29T13:10:08.686Z,28.30
2018-07-29T13:12:36.545Z,28.30
2018-07-29T13:15:05.406Z,28.30
2018-07-29T13:17:33.238Z,28.30
2018-07-29T13:20:00.858Z,28.40
2018-07-29T13:22:28.375Z,28.40
2018-07-29T13:24:55.874Z,28.40
2018-07-29T13:27:23.506Z,28.40
2018-07-29T13:29:51.054Z,28.40
2018-07-29T13:32:18.625Z,28.40
2018-07-29T13:34:46.050Z,28.40
2018-07-29T13:37:13.698Z,28.50
2018-07-29T13:39:41.142Z,28.50
2018-07-29T13:42:08.936Z,28.50
2018-07-29T13:44:36.382Z,28.50
2018-07-29T13:47:04.146Z,28.50
2018-07-29T13:49:31.624Z,28.50
2018-07-29T13:51:59.582Z,28.50
2018-07-29T13:54:27.081Z,28.50
2018-07-29T13:56:54.902Z,28.50
2018-07-29T13:59:22.567Z,28.50
2018-07-29T14:01:50.404Z,28.50
2018-07-29T14:04:17.954Z,28.60
2018-07-29T14:06:45.461Z,28.60
2018-07-29T14:09:13.058Z,28.60
2018-07-29T14:11:41.012Z,28.60
2018-07-29T14:14:08.719Z,28.70
2018-07-29T14:19:04.367Z,28.70
2018-07-29T14:21:32.134Z,28.70
2018-07-29T14:23:59.880Z,28.70
2018-07-29T14:26:27.382Z,28.70
2018-07-29T14:28:54.879Z,28.80
2018-07-29T14:31:22.650Z,28.80
2018-07-29T14:33:50.491Z,28.80
2018-07-29T14:36:17.956Z,28.80
2018-07-29T14:38:45.496Z,28.90
2018-07-29T14:41:12.992Z,29.00
2018-07-29T14:43:40.477Z,29.00
2018-07-29T14:46:08.174Z,29.10
2018-07-29T14:48:35.725Z,29.10
2018-07-29T14:51:03.278Z,29.20
2018-07-29T14:53:30.838Z,29.20
2018-07-29T14:55:58.304Z,29.10
2018-07-29T14:58:25.749Z,29.20
2018-07-29T15:00:53.451Z,29.20
2018-07-29T15:03:20.930Z,29.20
2018-07-29T15:05:48.496Z,29.20
2018-07-29T15:08:15.934Z,29.30
2018-07-29T15:10:43.513Z,29.30
2018-07-29T15:13:11.022Z,29.30
2018-07-29T15:15:38.507Z,29.40
2018-07-29T15:18:06.251Z,29.40
2018-07-29T15:20:33.690Z,29.40
2018-07-29T15:23:01.281Z,29.50
2018-07-29T15:25:28.853Z,29.50
2018-07-29T15:27:56.242Z,29.50
2018-07-29T15:30:23.691Z,29.60
2018-07-29T15:32:51.257Z,29.70
2018-07-29T15:35:18.633Z,29.70
2018-07-29T15:37:46.092Z,29.80
2018-07-29T15:40:13.647Z,29.90
2018-07-29T15:42:41.118Z,30.10
2018-07-29T15:45:08.622Z,30.40
2018-07-29T15:47:36.045Z,30.80
2018-07-29T15:50:04.190Z,31.30
2018-07-29T15:52:31.978Z,31.70
2018-07-29T15:54:59.359Z,32.00
2018-07-29T15:57:26.857Z,32.20
2018-07-29T15:59:54.413Z,32.40
2018-07-29T16:02:22.103Z,32.70
2018-07-29T16:04:49.582Z,32.80
2018-07-29T16:07:17.069Z,32.90
2018-07-29T16:09:44.531Z,33.00
2018-07-29T16:12:12.009Z,33.00
2018-07-29T16:14:39.486Z,33.00
2018-07-29T16:17:07.013Z,33.00
2018-07-29T16:19:34.459Z,33.00
2018-07-29T16:22:01.922Z,33.00
2018-07-29T16:24:29.559Z,33.20
2018-07-29T16:26:57.130Z,33.30
2018-07-29T16:29:24.493Z,33.40
2018-07-29T16:31:52.158Z,33.50
2018-07-29T16:34:19.646Z,33.40
2018-07-29T16:36:47.150Z,33.30
2018-07-29T16:39:14.549Z,33.10
2018-07-29T16:41:41.990Z,32.90
2018-07-29T16:44:10.371Z,32.70
2018-07-29T16:46:38.030Z,32.60
2018-07-29T16:49:05.650Z,32.40
2018-07-29T16:51:33.327Z,32.20
2018-07-29T16:54:01.149Z,32.10
2018-07-29T16:56:28.622Z,31.90
2018-07-29T16:58:56.111Z,31.80
2018-07-29T17:01:23.632Z,31.60
2018-07-29T17:03:51.043Z,31.60
2018-07-29T17:06:18.519Z,31.50
2018-07-29T17:08:45.924Z,31.40
2018-07-29T17:11:14.271Z,31.30
2018-07-29T17:13:41.740Z,31.20
2018-07-29T17:16:09.425Z,31.10
2018-07-29T17:18:36.877Z,31.10
2018-07-29T17:23:31.742Z,31.00
2018-07-29T17:25:59.237Z,30.90
2018-07-29T17:28:26.689Z,30.80
2018-07-29T17:30:54.150Z,30.80
2018-07-29T17:33:21.557Z,30.70
2018-07-29T17:35:48.994Z,30.60
2018-07-29T17:38:16.448Z,30.60
2018-07-29T17:40:44.173Z,30.60
2018-07-29T17:43:11.769Z,30.50
2018-07-29T17:45:39.379Z,30.50
2018-07-29T17:48:06.959Z,30.50
2018-07-29T17:50:34.445Z,30.50
2018-07-29T17:53:01.867Z,30.50
2018-07-29T17:55:29.573Z,30.40
2018-07-29T17:57:57.035Z,30.40
2018-07-29T18:00:24.776Z,30.30
2018-07-29T18:02:52.325Z,30.30
2018-07-29T18:05:19.936Z,30.30
2018-07-29T18:07:47.298Z,30.20
2018-07-29T18:10:14.764Z,30.20
2018-07-29T18:12:42.170Z,30.10
2018-07-29T18:15:09.882Z,30.10
2018-07-29T18:17:37.429Z,30.10
2018-07-29T18:20:05.406Z,30.00
2018-07-29T18:22:32.961Z,30.00
2018-07-29T18:25:00.428Z,30.00
2018-07-29T18:27:27.953Z,30.00
2018-07-29T18:29:55.435Z,29.90
2018-07-29T18:32:22.923Z,29.90
2018-07-29T18:34:50.628Z,29.90
2018-07-29T18:37:18.174Z,29.90
2018-07-29T18:39:45.675Z,29.80
2018-07-29T18:42:13.251Z,29.80
2018-07-29T18:44:40.906Z,29.80
2018-07-29T18:47:08.461Z,29.80
2018-07-29T18:49:35.965Z,29.80
2018-07-29T18:52:03.911Z,29.80
2018-07-29T18:54:31.358Z,29.70
2018-07-29T18:56:58.938Z,29.70
2018-07-29T18:59:26.453Z,29.70
2018-07-29T19:01:53.889Z,29.70
2018-07-29T19:04:21.341Z,29.70
2018-07-29T19:06:48.842Z,29.60
2018-07-29T19:09:16.258Z,29.60
2018-07-29T19:11:43.911Z,29.60
2018-07-29T19:14:11.474Z,29.60
2018-07-29T19:16:38.991Z,29.60
2018-07-29T19:19:06.616Z,29.60
2018-07-29T19:21:34.199Z,29.60
2018-07-29T19:24:01.905Z,29.60
2018-07-29T19:26:29.406Z,29.50
2018-07-29T19:28:56.855Z,29.50
2018-07-29T19:31:24.395Z,29.60
2018-07-29T19:33:51.975Z,29.60
2018-07-29T19:36:19.447Z,29.50
2018-07-29T19:38:46.940Z,29.50
2018-07-29T19:41:14.485Z,29.50
2018-07-29T19:43:42.062Z,29.50
2018-07-29T19:46:09.546Z,29.50
2018-07-29T19:48:37.010Z,29.50
2018-07-29T19:51:04.543Z,29.50
2018-07-29T19:53:32.510Z,29.50
2018-07-29T19:56:00.198Z,29.40
2018-07-29T19:58:27.610Z,29.40
2018-07-29T20:00:55.410Z,29.40
2018-07-29T20:03:23.042Z,29.40
2018-07-29T20:05:50.637Z,29.40
2018-07-29T20:08:18.109Z,29.40
2018-07-29T20:10:45.581Z,29.40
2018-07-29T20:13:13.034Z,29.40
2018-07-29T20:15:40.750Z,29.30
2018-07-29T20:18:08.231Z,29.20
2018-07-29T20:20:35.897Z,29.20
2018-07-29T20:23:03.275Z,29.20
2018-07-29T20:25:30.815Z,29.20
2018-07-29T20:27:58.470Z,29.10
2018-07-29T20:30:25.947Z,29.10
2018-07-29T20:32:53.543Z,29.10
2018-07-29T20:35:21.293Z,29.00
2018-07-29T20:37:49.027Z,29.00
2018-07-29T20:40:16.591Z,29.00
2018-07-29T20:42:44.230Z,29.00
2018-07-29T20:45:11.925Z,29.00
2018-07-29T20:47:39.586Z,29.00
2018-07-29T20:50:07.310Z,28.90
2018-07-29T20:52:34.828Z,29.00
2018-07-29T20:55:02.382Z,29.00
2018-07-29T20:57:29.782Z,28.90
2018-07-29T20:59:57.682Z,29.00
2018-07-29T21:02:25.275Z,29.00
2018-07-29T21:04:52.783Z,29.00
2018-07-29T21:07:20.451Z,28.90
2018-07-29T21:09:47.965Z,28.90
2018-07-29T21:12:15.471Z,28.90
2018-07-29T21:14:43.004Z,28.90
2018-07-29T21:17:10.472Z,28.90
2018-07-29T21:19:37.981Z,28.90
2018-07-29T21:22:05.541Z,28.80
2018-07-29T21:24:33.086Z,28.90
2018-07-29T21:27:00.598Z,28.90
2018-07-29T21:29:28.246Z,28.90
2018-07-29T21:34:23.118Z,28.90
2018-07-29T21:36:50.624Z,28.80
2018-07-29T21:39:18.052Z,28.80
2018-07-29T21:41:45.491Z,28.80
2018-07-29T21:44:12.938Z,28.80
2018-07-29T21:54:03.051Z,28.80
2018-07-29T21:56:30.753Z,28.80
2018-07-29T22:01:28.544Z,28.80
2018-07-29T22:03:55.958Z,28.80
2018-07-29T22:06:23.561Z,28.70
2018-07-29T22:08:50.964Z,28.70
2018-07-29T22:11:18.441Z,28.70
2018-07-29T22:13:45.950Z,28.70
2018-07-29T22:16:13.371Z,28.70
2018-07-29T22:18:40.743Z,28.70
2018-07-29T22:21:08.262Z,28.70
2018-07-29T22:23:35.836Z,28.70
2018-07-29T22:26:09.171Z,28.60
2018-07-29T22:28:42.474Z,28.60
2018-07-29T22:31:15.832Z,28.60
2018-07-29T22:33:43.370Z,28.60
2018-07-29T22:36:11.477Z,28.60
2018-07-29T22:38:39.475Z,28.60
2018-07-29T22:41:07.646Z,28.60
2018-07-29T22:43:35.227Z,28.60
2018-07-29T22:46:02.953Z,28.60
2018-07-29T22:48:30.513Z,28.60
2018-07-29T22:50:58.174Z,28.60
2018-07-29T22:55:53.245Z,28.60
2018-07-29T22:58:20.691Z,28.50
2018-07-29T23:00:48.192Z,28.50
2018-07-29T23:03:15.667Z,28.50
2018-07-29T23:05:43.110Z,28.50
2018-07-29T23:08:10.518Z,28.50
2018-07-29T23:10:37.995Z,28.50
2018-07-29T23:13:05.451Z,28.50
2018-07-29T23:15:32.946Z,28.50
2018-07-29T23:18:00.342Z,28.40
2018-07-29T23:20:27.878Z,28.50
2018-07-29T23:22:55.334Z,28.50
2018-07-29T23:25:22.710Z,28.40
2018-07-29T23:27:50.157Z,28.40
2018-07-29T23:30:17.676Z,28.40
2018-07-29T23:32:45.085Z,28.40
2018-07-29T23:35:12.493Z,28.40
2018-07-29T23:37:39.941Z,28.40
2018-07-29T23:40:07.494Z,28.40
2018-07-29T23:42:35.193Z,28.30
2018-07-29T23:45:02.676Z,28.30
2018-07-29T23:47:30.254Z,28.30
2018-07-29T23:49:57.766Z,28.30
2018-07-29T23:54:52.634Z,28.20
2018-07-29T23:57:20.313Z,28.20
2018-07-29T23:59:47.978Z,28.20
